Time;durP1;ratioP1;P1;durP2;ratioP2;P2;SDS_P1;SDS_P2;PMS_P1;PMS_P2;Temp;Humidity;BMP_temperature;BMP_pressure;BME280_temperature;BME280_humidity;BME280_pressure;Samples;Min_cycle;Max_cycle;Signal;HPM_P1;HPM_P2
2022/01/15 00:01:13;;;;;;;;;;;-2.60;99.90;;;;;;5051473;28;20002;-52
2022/01/15 00:03:39;;;;;;;;;;;-2.50;99.90;;;;;;5046920;28;19925;-52
2022/01/15 00:06:06;;;;;;;;;;;-2.20;99.90;;;;;;5056450;28;19925;-52
2022/01/15 00:08:33;;;;;;;;;;;-2.10;99.90;;;;;;5053323;28;20394;-51
2022/01/15 00:11:00;;;;;;;;;;;-2.10;99.90;;;;;;5044229;28;19955;-52
2022/01/15 00:13:29;;;;;;;;;;;-2.30;99.90;;;;;;5046228;28;19932;-52
2022/01/15 00:16:06;;;;;;;;;;;-2.40;99.90;;;;;;5049636;28;20275;-52
2022/01/15 00:18:43;;;;;;;;;;;-2.50;99.90;;;;;;5050352;28;19924;-61
2022/01/15 00:21:10;;;;;;;;;;;-2.60;99.90;;;;;;5049026;28;19933;-52
2022/01/15 00:23:36;;;;;;;;;;;-2.70;99.90;;;;;;5051525;28;19925;-52
2022/01/15 00:26:03;;;;;;;;;;;-2.70;99.90;;;;;;5050369;28;19924;-53
2022/01/15 00:28:30;;;;;;;;;;;-2.80;99.90;;;;;;5051949;28;19932;-52
2022/01/15 00:30:58;;;;;;;;;;;-2.80;99.90;;;;;;5058331;28;19978;-53
2022/01/15 00:33:26;;;;;;;;;;;-2.80;99.90;;;;;;5064252;28;19971;-52
2022/01/15 00:35:52;;;;;;;;;;;-2.70;99.90;;;;;;5060498;28;19944;-53
2022/01/15 00:38:19;;;;;;;;;;;-2.70;99.90;;;;;;5061965;28;19925;-53
2022/01/15 00:40:46;;;;;;;;;;;-2.60;99.90;;;;;;5076487;28;20401;-53
2022/01/15 00:43:13;;;;;;;;;;;-2.70;99.90;;;;;;5068508;28;19928;-54
2022/01/15 00:45:39;;;;;;;;;;;-2.70;99.90;;;;;;5049428;28;19925;-53
2022/01/15 00:48:07;;;;;;;;;;;-2.80;99.90;;;;;;5043179;28;19932;-53
2022/01/15 00:50:34;;;;;;;;;;;-2.80;99.90;;;;;;5050807;28;19925;-53
2022/01/15 00:53:01;;;;;;;;;;;-2.90;99.90;;;;;;5048446;28;19928;-53
2022/01/15 00:55:28;;;;;;;;;;;-2.90;99.90;;;;;;5044189;28;19979;-54
2022/01/15 00:57:58;;;;;;;;;;;-2.80;99.90;;;;;;5048404;28;20583;-53
2022/01/15 01:00:25;;;;;;;;;;;-2.90;99.90;;;;;;5047998;28;19929;-54
2022/01/15 01:02:52;;;;;;;;;;;-2.80;99.90;;;;;;5050381;28;19925;-53
2022/01/15 01:05:21;;;;;;;;;;;-2.80;99.90;;;;;;5039937;28;19971;-54
2022/01/15 01:07:48;;;;;;;;;;;-2.80;99.90;;;;;;5049830;28;19925;-53
2022/01/15 01:24:15;;;;;;;;;;;-2.60;99.90;;;;;;4991552;28;20346;-53
2022/01/15 01:26:46;;;;;;;;;;;-2.60;99.90;;;;;;5036840;28;20374;-53
2022/01/15 01:29:24;;;;;;;;;;;-2.60;99.90;;;;;;5047753;28;19937;-53
2022/01/15 01:31:58;;;;;;;;;;;-2.80;99.90;;;;;;5035631;28;19925;-53
2022/01/15 01:34:26;;;;;;;;;;;-2.70;99.90;;;;;;5036148;28;19928;-52
2022/01/15 01:37:01;;;;;;;;;;;-2.60;99.90;;;;;;5046449;28;19924;-52
2022/01/15 01:39:37;;;;;;;;;;;-2.60;99.90;;;;;;5054972;28;20012;-51
2022/01/15 01:42:11;;;;;;;;;;;-2.60;99.90;;;;;;5043492;28;19947;-52
2022/01/15 01:44:41;;;;;;;;;;;-2.60;99.90;;;;;;5046094;28;19925;-52
2022/01/15 01:47:18;;;;;;;;;;;-2.60;99.90;;;;;;5042170;28;20347;-51
2022/01/15 01:49:45;;;;;;;;;;;-2.60;99.90;;;;;;5038548;28;20351;-51
2022/01/15 01:52:13;;;;;;;;;;;-2.70;99.90;;;;;;5053530;28;20062;-51
2022/01/15 01:54:40;;;;;;;;;;;-2.70;99.90;;;;;;5034790;28;19926;-51
2022/01/15 01:57:07;;;;;;;;;;;-2.70;99.90;;;;;;5034952;28;19968;-52
2022/01/15 01:59:33;;;;;;;;;;;-2.80;99.90;;;;;;5043611;28;19929;-51
2022/01/15 02:02:00;;;;;;;;;;;-2.80;99.90;;;;;;5053448;28;20368;-52
2022/01/15 02:04:27;;;;;;;;;;;-2.70;99.90;;;;;;5057108;28;19966;-53
2022/01/15 02:06:53;;;;;;;;;;;-2.70;99.90;;;;;;5055535;28;19925;-52
2022/01/15 02:09:23;;;;;;;;;;;-2.80;99.90;;;;;;5036626;28;19979;-52
2022/01/15 02:11:50;;;;;;;;;;;-2.90;99.90;;;;;;5047717;28;20287;-52
2022/01/15 02:14:26;;;;;;;;;;;-2.90;99.90;;;;;;5051810;28;19951;-52
2022/01/15 02:16:53;;;;;;;;;;;-3.00;99.90;;;;;;5039146;28;19991;-53
2022/01/15 02:19:20;;;;;;;;;;;-3.00;99.90;;;;;;5041434;28;19929;-52
2022/01/15 02:24:32;;;;;;;;;;;-3.00;99.90;;;;;;5033577;28;20393;-52
2022/01/15 02:26:59;;;;;;;;;;;-3.10;99.90;;;;;;5033416;28;19926;-52
2022/01/15 02:29:25;;;;;;;;;;;-3.20;99.90;;;;;;5034554;28;19929;-52
2022/01/15 02:31:53;;;;;;;;;;;-3.20;99.90;;;;;;5039659;28;20000;-54
2022/01/15 02:34:20;;;;;;;;;;;-3.20;99.90;;;;;;5037828;28;19925;-52
2022/01/15 02:36:48;;;;;;;;;;;-3.30;99.90;;;;;;5037196;28;19971;-52
2022/01/15 02:39:15;;;;;;;;;;;-3.20;99.90;;;;;;5033067;28;19980;-52
2022/01/15 02:41:42;;;;;;;;;;;-3.20;99.90;;;;;;5043270;28;19929;-51
2022/01/15 02:44:14;;;;;;;;;;;-3.00;99.90;;;;;;5049388;28;19931;-52
2022/01/15 02:49:22;;;;;;;;;;;-3.00;99.90;;;;;;5045759;28;19974;-53
2022/01/15 02:51:50;;;;;;;;;;;-3.00;99.90;;;;;;5036481;28;19929;-52
2022/01/15 02:54:16;;;;;;;;;;;-3.10;99.90;;;;;;5036089;28;19925;-51
2022/01/15 02:56:44;;;;;;;;;;;-3.00;99.90;;;;;;5036775;28;19991;-53
2022/01/15 02:59:15;;;;;;;;;;;-2.90;99.90;;;;;;5036426;28;19924;-52
2022/01/15 03:01:42;;;;;;;;;;;-2.90;99.90;;;;;;5049912;28;20369;-52
2022/01/15 03:04:09;;;;;;;;;;;-3.00;99.90;;;;;;5047052;28;19979;-52
2022/01/15 03:06:36;;;;;;;;;;;-2.90;99.90;;;;;;5033446;28;19937;-51
2022/01/15 03:09:04;;;;;;;;;;;-2.90;99.90;;;;;;5032832;28;19925;-52
2022/01/15 03:11:31;;;;;;;;;;;-3.00;99.90;;;;;;5033417;28;20232;-51
2022/01/15 03:13:58;;;;;;;;;;;-3.20;99.90;;;;;;5037471;28;19975;-52
2022/01/15 03:16:24;;;;;;;;;;;-3.30;99.90;;;;;;5039152;28;19929;-52
2022/01/15 03:18:51;;;;;;;;;;;-3.40;99.90;;;;;;5045481;28;20356;-52
2022/01/15 03:21:18;;;;;;;;;;;-3.40;99.90;;;;;;5039190;28;19925;-52
2022/01/15 03:23:45;;;;;;;;;;;-3.50;99.90;;;;;;5051488;28;19925;-52
2022/01/15 03:26:14;;;;;;;;;;;-3.50;99.90;;;;;;5052361;28;19925;-52
2022/01/15 03:28:41;;;;;;;;;;;-3.50;99.90;;;;;;5048526;28;19939;-53
2022/01/15 03:31:08;;;;;;;;;;;-3.40;99.90;;;;;;5033523;28;19976;-52
2022/01/15 03:33:34;;;;;;;;;;;-3.40;99.90;;;;;;5034335;28;19936;-53
2022/01/15 03:36:01;;;;;;;;;;;-3.40;99.90;;;;;;5051892;28;20386;-52
2022/01/15 03:38:28;;;;;;;;;;;-3.50;99.90;;;;;;5049349;28;19925;-52
2022/01/15 03:40:55;;;;;;;;;;;-3.50;99.90;;;;;;5051222;28;20386;-53
2022/01/15 03:43:23;;;;;;;;;;;-3.60;99.90;;;;;;5051623;28;19928;-53
2022/01/15 03:45:49;;;;;;;;;;;-3.60;99.90;;;;;;5049855;28;20389;-52
2022/01/15 03:48:16;;;;;;;;;;;-3.60;99.90;;;;;;5052089;28;19933;-52
2022/01/15 03:50:43;;;;;;;;;;;-3.60;99.90;;;;;;5052668;28;19925;-52
2022/01/15 03:53:10;;;;;;;;;;;-3.60;99.90;;;;;;5047043;28;19937;-52
2022/01/15 03:55:37;;;;;;;;;;;-3.60;99.90;;;;;;5040425;28;20356;-53
2022/01/15 03:58:03;;;;;;;;;;;-3.60;99.90;;;;;;5052293;28;19925;-52
2022/01/15 04:00:31;;;;;;;;;;;-3.60;99.90;;;;;;5035765;28;19979;-52
2022/01/15 04:03:03;;;;;;;;;;;-3.60;99.90;;;;;;5038432;28;19970;-53
2022/01/15 04:05:30;;;;;;;;;;;-3.60;99.90;;;;;;5052209;28;19924;-52
2022/01/15 04:08:01;;;;;;;;;;;-3.60;99.90;;;;;;5052074;28;19925;-52
2022/01/15 04:10:27;;;;;;;;;;;-3.60;99.90;;;;;;5050288;28;20279;-51
2022/01/15 04:12:54;;;;;;;;;;;-3.60;99.90;;;;;;5051399;28;19925;-51
2022/01/15 04:15:21;;;;;;;;;;;-3.60;99.90;;;;;;5047697;28;19925;-51
2022/01/15 04:17:50;;;;;;;;;;;-3.60;99.90;;;;;;5032285;28;20353;-51
2022/01/15 04:20:19;;;;;;;;;;;-3.60;99.90;;;;;;5032404;28;19936;-52
2022/01/15 04:22:46;;;;;;;;;;;-3.60;99.90;;;;;;5037689;28;19960;-52
2022/01/15 04:25:13;;;;;;;;;;;-3.60;99.90;;;;;;5050370;28;19925;-51
2022/01/15 04:27:41;;;;;;;;;;;-3.40;99.90;;;;;;5044732;28;19925;-52
2022/01/15 04:30:09;;;;;;;;;;;-3.50;99.90;;;;;;5046652;28;19932;-51
2022/01/15 04:32:36;;;;;;;;;;;-3.60;99.90;;;;;;5038809;28;19924;-52
2022/01/15 04:35:04;;;;;;;;;;;-3.60;99.90;;;;;;5052103;28;19932;-52
2022/01/15 04:37:37;;;;;;;;;;;-3.70;99.90;;;;;;5051162;28;19925;-51
2022/01/15 04:40:04;;;;;;;;;;;-3.70;99.90;;;;;;5043053;28;19926;-52
2022/01/15 04:42:31;;;;;;;;;;;-3.80;99.90;;;;;;5032719;28;19925;-51
2022/01/15 04:44:58;;;;;;;;;;;-3.80;99.90;;;;;;5042301;28;19925;-51
2022/01/15 04:47:25;;;;;;;;;;;-3.80;99.90;;;;;;5051251;28;19928;-52
2022/01/15 04:49:54;;;;;;;;;;;-3.80;99.90;;;;;;5051751;28;19983;-51
2022/01/15 04:52:22;;;;;;;;;;;-3.90;99.90;;;;;;5051633;28;19925;-52
2022/01/15 04:54:48;;;;;;;;;;;-3.90;99.90;;;;;;5049367;28;19925;-51
2022/01/15 04:57:15;;;;;;;;;;;-3.90;99.90;;;;;;5055267;28;19929;-51
2022/01/15 04:59:42;;;;;;;;;;;-3.90;99.90;;;;;;5053299;28;20425;-51
2022/01/15 05:02:09;;;;;;;;;;;-3.90;99.90;;;;;;5055603;28;19925;-51
2022/01/15 05:04:35;;;;;;;;;;;-3.90;99.90;;;;;;5055052;28;20302;-51
2022/01/15 05:07:02;;;;;;;;;;;-3.90;99.90;;;;;;5055347;28;19925;-52
2022/01/15 05:09:30;;;;;;;;;;;-3.90;99.90;;;;;;5053224;28;19978;-52
2022/01/15 05:12:02;;;;;;;;;;;-3.90;99.90;;;;;;5055402;28;20349;-51
2022/01/15 05:14:29;;;;;;;;;;;-3.90;99.90;;;;;;5055459;28;19964;-52
2022/01/15 05:16:56;;;;;;;;;;;-3.90;99.90;;;;;;5041742;28;19925;-51
2022/01/15 05:19:22;;;;;;;;;;;-3.90;99.90;;;;;;5050799;28;19990;-53
2022/01/15 05:21:49;;;;;;;;;;;-3.90;99.90;;;;;;5054990;28;20275;-52
2022/01/15 05:24:16;;;;;;;;;;;-3.90;99.90;;;;;;5053967;28;19955;-52
2022/01/15 05:26:44;;;;;;;;;;;-3.90;99.90;;;;;;5055033;28;19967;-52
2022/01/15 05:29:11;;;;;;;;;;;-3.90;99.90;;;;;;5047337;28;19925;-52
2022/01/15 05:31:38;;;;;;;;;;;-4.00;99.90;;;;;;5035347;28;20361;-52
2022/01/15 05:34:05;;;;;;;;;;;-3.90;99.90;;;;;;5034940;28;19925;-52
2022/01/15 05:36:31;;;;;;;;;;;-3.90;99.90;;;;;;5040566;28;19990;-52
2022/01/15 05:38:58;;;;;;;;;;;-3.90;99.90;;;;;;5034937;28;19979;-52
2022/01/15 05:41:25;;;;;;;;;;;-3.90;99.90;;;;;;5035113;28;19983;-52
2022/01/15 05:43:53;;;;;;;;;;;-3.90;99.90;;;;;;5043474;28;19924;-52
2022/01/15 05:46:20;;;;;;;;;;;-3.90;99.90;;;;;;5054789;28;19955;-52
2022/01/15 05:48:46;;;;;;;;;;;-3.80;99.90;;;;;;5041082;28;19937;-52
2022/01/15 05:51:13;;;;;;;;;;;-3.70;99.90;;;;;;5036379;28;19971;-52
2022/01/15 05:53:40;;;;;;;;;;;-3.60;99.90;;;;;;5044708;28;19925;-52
2022/01/15 05:56:07;;;;;;;;;;;-3.50;99.90;;;;;;5050884;28;19925;-52
2022/01/15 05:58:33;;;;;;;;;;;-3.50;99.90;;;;;;5036797;28;20350;-52
2022/01/15 06:01:02;;;;;;;;;;;-3.40;99.90;;;;;;5041005;28;19924;-52
2022/01/15 06:03:28;;;;;;;;;;;-3.30;99.90;;;;;;5053689;28;20357;-52
2022/01/15 06:05:55;;;;;;;;;;;-3.20;99.90;;;;;;5053529;28;19928;-52
2022/01/15 06:08:22;;;;;;;;;;;-3.10;99.90;;;;;;5052646;28;19955;-52
2022/01/15 06:10:48;;;;;;;;;;;-3.10;99.90;;;;;;5053034;28;19929;-52
2022/01/15 06:13:15;;;;;;;;;;;-3.00;99.90;;;;;;5052625;28;19925;-52
2022/01/15 06:15:42;;;;;;;;;;;-3.10;99.90;;;;;;5054244;28;19966;-53
2022/01/15 06:18:10;;;;;;;;;;;-3.10;99.90;;;;;;5052716;28;19929;-52
2022/01/15 06:20:37;;;;;;;;;;;-3.00;99.90;;;;;;5053983;28;19979;-54
2022/01/15 06:23:05;;;;;;;;;;;-3.00;99.90;;;;;;5053478;28;19924;-53
2022/01/15 06:25:31;;;;;;;;;;;-3.00;99.90;;;;;;5051253;28;20531;-52
2022/01/15 06:27:58;;;;;;;;;;;-2.80;99.90;;;;;;5053781;28;20009;-53
2022/01/15 06:30:25;;;;;;;;;;;-2.80;99.90;;;;;;5053482;28;20005;-53
2022/01/15 06:32:52;;;;;;;;;;;-2.80;99.90;;;;;;5039301;28;20341;-52
2022/01/15 06:35:20;;;;;;;;;;;-2.80;99.90;;;;;;5034059;28;19959;-52
2022/01/15 06:37:48;;;;;;;;;;;-2.70;99.90;;;;;;5034167;28;19925;-52
2022/01/15 06:40:15;;;;;;;;;;;-2.70;99.90;;;;;;5035013;28;20013;-53
2022/01/15 06:42:42;;;;;;;;;;;-2.70;99.90;;;;;;5090993;22;19924;-55
2022/01/15 06:45:10;;;;;;;;;;;-2.70;99.90;;;;;;5057802;28;19991;-49
2022/01/15 06:47:37;;;;;;;;;;;-2.60;99.90;;;;;;5053384;28;19978;-49
2022/01/15 06:50:05;;;;;;;;;;;-2.60;99.90;;;;;;5052843;28;19964;-49
2022/01/15 06:52:33;;;;;;;;;;;-2.40;99.90;;;;;;5069145;28;20012;-50
2022/01/15 06:55:00;;;;;;;;;;;-2.40;99.90;;;;;;5058856;28;19932;-49
2022/01/15 06:57:27;;;;;;;;;;;-2.40;99.90;;;;;;5070554;28;19925;-50
2022/01/15 06:59:54;;;;;;;;;;;-2.40;99.90;;;;;;5072949;28;20019;-48
2022/01/15 07:02:21;;;;;;;;;;;-2.40;99.90;;;;;;5072717;28;19925;-49
2022/01/15 07:04:48;;;;;;;;;;;-2.30;99.90;;;;;;5073046;28;19924;-49
2022/01/15 07:07:15;;;;;;;;;;;-2.30;99.90;;;;;;5072949;28;20496;-49
2022/01/15 07:09:43;;;;;;;;;;;-2.30;99.90;;;;;;5072459;28;20267;-50
2022/01/15 07:12:10;;;;;;;;;;;-2.30;99.90;;;;;;5072332;28;19924;-50
2022/01/15 07:14:37;;;;;;;;;;;-2.30;99.90;;;;;;5072835;28;20332;-50
2022/01/15 07:17:04;;;;;;;;;;;-2.20;99.90;;;;;;5072809;28;20370;-49
2022/01/15 07:19:32;;;;;;;;;;;-2.20;99.90;;;;;;5072146;28;20409;-50
2022/01/15 07:21:58;;;;;;;;;;;-2.10;99.90;;;;;;5072504;28;20015;-49
2022/01/15 07:24:25;;;;;;;;;;;-2.10;99.90;;;;;;5072574;28;19924;-50
2022/01/15 07:26:53;;;;;;;;;;;-2.10;99.90;;;;;;5072269;28;19929;-49
2022/01/15 07:29:20;;;;;;;;;;;-2.10;99.90;;;;;;5071650;28;19925;-49
2022/01/15 07:31:47;;;;;;;;;;;-2.10;99.90;;;;;;5072131;28;20069;-49
2022/01/15 07:34:14;;;;;;;;;;;-2.10;99.90;;;;;;5072277;28;19925;-50
2022/01/15 07:36:43;;;;;;;;;;;-1.90;99.90;;;;;;5071272;28;20462;-49
2022/01/15 07:39:10;;;;;;;;;;;-2.00;99.90;;;;;;5071971;28;19924;-49
2022/01/15 07:41:37;;;;;;;;;;;-2.00;99.90;;;;;;5071882;28;19928;-49
2022/01/15 07:44:05;;;;;;;;;;;-2.10;99.90;;;;;;5071571;28;19986;-49
2022/01/15 07:46:32;;;;;;;;;;;-2.00;99.90;;;;;;5070995;28;19924;-50
2022/01/15 07:48:59;;;;;;;;;;;-1.90;99.90;;;;;;5071609;28;20635;-50
2022/01/15 07:51:26;;;;;;;;;;;-1.90;99.90;;;;;;5071580;28;19929;-49
2022/01/15 07:53:53;;;;;;;;;;;-1.80;99.90;;;;;;5071708;28;19996;-49
2022/01/15 07:56:20;;;;;;;;;;;-1.80;99.90;;;;;;5071971;28;19924;-50
2022/01/15 07:58:47;;;;;;;;;;;-1.80;99.90;;;;;;5071848;28;19928;-50
2022/01/15 08:01:15;;;;;;;;;;;-1.70;99.90;;;;;;5071629;28;20031;-50
2022/01/15 08:03:42;;;;;;;;;;;-1.60;99.90;;;;;;5070465;28;19966;-50
2022/01/15 08:06:09;;;;;;;;;;;-1.60;99.90;;;;;;5065437;28;19936;-50
2022/01/15 08:08:36;;;;;;;;;;;-1.50;99.90;;;;;;5065325;28;20409;-50
2022/01/15 08:11:04;;;;;;;;;;;-1.40;99.90;;;;;;5071749;28;19924;-49
2022/01/15 08:13:31;;;;;;;;;;;-1.40;99.90;;;;;;5071798;28;19924;-50
2022/01/15 08:15:58;;;;;;;;;;;-1.40;99.90;;;;;;5071123;28;20409;-51
2022/01/15 08:18:26;;;;;;;;;;;-1.40;99.90;;;;;;5071045;28;20011;-49
2022/01/15 08:20:53;;;;;;;;;;;-1.40;99.90;;;;;;5069654;28;19933;-50
2022/01/15 08:23:20;;;;;;;;;;;-1.30;99.90;;;;;;5064956;28;20295;-51
2022/01/15 08:25:47;;;;;;;;;;;-1.30;99.90;;;;;;5070870;28;19979;-50
2022/01/15 08:28:15;;;;;;;;;;;-1.30;99.90;;;;;;5070169;28;19954;-51
2022/01/15 08:30:41;;;;;;;;;;;-1.10;99.90;;;;;;5070099;28;19947;-50
2022/01/15 08:33:08;;;;;;;;;;;-1.10;99.90;;;;;;5070250;28;19924;-50
2022/01/15 08:35:36;;;;;;;;;;;-1.00;99.90;;;;;;5070118;28;19978;-49
2022/01/15 08:38:03;;;;;;;;;;;-0.90;99.90;;;;;;5070534;28;20360;-50
2022/01/15 08:40:32;;;;;;;;;;;-0.90;99.90;;;;;;5071218;28;19966;-50
2022/01/15 08:42:59;;;;;;;;;;;-0.80;99.90;;;;;;5069431;28;19938;-50
2022/01/15 08:45:26;;;;;;;;;;;-0.70;99.90;;;;;;5071484;28;20301;-50
2022/01/15 08:47:53;;;;;;;;;;;-0.70;99.90;;;;;;5071214;28;19932;-50
2022/01/15 08:50:20;;;;;;;;;;;-0.70;99.90;;;;;;5071499;28;19974;-49
2022/01/15 08:52:48;;;;;;;;;;;-0.80;99.90;;;;;;5071443;28;19998;-50
2022/01/15 08:55:15;;;;;;;;;;;-0.70;99.90;;;;;;5071280;28;19993;-49
2022/01/15 08:57:42;;;;;;;;;;;-0.50;99.90;;;;;;5070305;28;19924;-49
2022/01/15 09:00:10;;;;;;;;;;;-0.50;99.90;;;;;;5070821;28;19928;-50
2022/01/15 09:02:37;;;;;;;;;;;-0.50;99.90;;;;;;5071313;28;19924;-51
2022/01/15 09:05:04;;;;;;;;;;;-0.30;99.90;;;;;;5071663;28;19974;-51
2022/01/15 09:07:31;;;;;;;;;;;-0.40;99.90;;;;;;5071148;28;19925;-50
2022/01/15 09:09:59;;;;;;;;;;;-0.40;99.90;;;;;;5070542;28;19928;-49
2022/01/15 09:12:25;;;;;;;;;;;-0.30;99.90;;;;;;5071317;28;20344;-51
2022/01/15 09:14:54;;;;;;;;;;;-0.30;99.90;;;;;;5070682;28;19924;-50
2022/01/15 09:17:21;;;;;;;;;;;-0.30;99.90;;;;;;5071296;28;19932;-51
2022/01/15 09:19:48;;;;;;;;;;;-0.40;99.90;;;;;;5071020;28;19924;-50
2022/01/15 09:22:15;;;;;;;;;;;-0.20;99.90;;;;;;5069683;28;19931;-50
2022/01/15 09:24:44;;;;;;;;;;;-0.10;99.90;;;;;;5069990;28;19932;-51
2022/01/15 09:30:15;;;;;;;;;;;0.10;99.90;;;;;;5070303;28;19935;-49
2022/01/15 09:32:43;;;;;;;;;;;-0.10;99.90;;;;;;5070406;28;19928;-50
2022/01/15 09:35:10;;;;;;;;;;;0.00;99.90;;;;;;5070977;28;19982;-51
2022/01/15 09:37:37;;;;;;;;;;;0.00;99.90;;;;;;5070847;28;20467;-49
2022/01/15 09:40:04;;;;;;;;;;;0.00;99.90;;;;;;5070560;28;19928;-51
2022/01/15 09:42:33;;;;;;;;;;;0.10;99.90;;;;;;5071494;28;20305;-50
2022/01/15 09:45:00;;;;;;;;;;;0.20;99.90;;;;;;5074307;28;19974;-50
2022/01/15 09:47:27;;;;;;;;;;;0.30;99.90;;;;;;5073739;28;19925;-51
2022/01/15 09:49:54;;;;;;;;;;;0.30;99.90;;;;;;5072997;28;20360;-51
2022/01/15 09:52:22;;;;;;;;;;;0.50;99.90;;;;;;5074267;28;19925;-50
2022/01/15 09:54:50;;;;;;;;;;;0.60;99.90;;;;;;5074144;28;20478;-50
2022/01/15 09:57:17;;;;;;;;;;;0.70;99.90;;;;;;5073310;28;19924;-49
2022/01/15 09:59:45;;;;;;;;;;;0.80;99.90;;;;;;5073739;28;19925;-51
2022/01/15 10:02:12;;;;;;;;;;;0.80;99.90;;;;;;5073580;28;20397;-50
2022/01/15 10:04:38;;;;;;;;;;;0.80;99.90;;;;;;5073017;28;19924;-51
2022/01/15 10:07:13;;;;;;;;;;;0.80;99.90;;;;;;5068919;28;19924;-50
2022/01/15 10:09:41;;;;;;;;;;;0.90;99.90;;;;;;5072952;28;19932;-50
2022/01/15 10:12:10;;;;;;;;;;;0.90;99.90;;;;;;5073724;28;19924;-50
2022/01/15 10:14:38;;;;;;;;;;;0.90;99.90;;;;;;5071630;28;19986;-51
2022/01/15 10:17:20;;;;;;;;;;;0.90;99.90;;;;;;5073737;28;19925;-50
2022/01/15 10:19:47;;;;;;;;;;;0.80;99.90;;;;;;5073192;28;20027;-51
2022/01/15 10:22:15;;;;;;;;;;;1.00;99.90;;;;;;5073402;28;19924;-50
2022/01/15 10:24:42;;;;;;;;;;;1.20;99.90;;;;;;5072485;28;19950;-51
2022/01/15 10:27:22;;;;;;;;;;;1.00;99.90;;;;;;5073356;28;19924;-52
2022/01/15 10:29:50;;;;;;;;;;;1.10;99.90;;;;;;5073069;28;19924;-51
2022/01/15 10:32:19;;;;;;;;;;;1.20;99.90;;;;;;5073155;28;20382;-51
2022/01/15 10:34:47;;;;;;;;;;;1.20;99.90;;;;;;5069275;28;20015;-50
2022/01/15 10:37:15;;;;;;;;;;;1.40;99.90;;;;;;5072428;28;20397;-49
2022/01/15 10:39:53;;;;;;;;;;;1.20;99.90;;;;;;5071141;28;19925;-49
2022/01/15 10:42:23;;;;;;;;;;;1.30;99.90;;;;;;5068442;28;19925;-49
2022/01/15 10:44:51;;;;;;;;;;;1.30;99.90;;;;;;5073105;28;19931;-50
2022/01/15 10:47:19;;;;;;;;;;;1.20;99.90;;;;;;5070329;28;19975;-49
2022/01/15 10:49:46;;;;;;;;;;;1.30;99.90;;;;;;5071743;28;19936;-49
2022/01/15 10:52:14;;;;;;;;;;;1.50;99.90;;;;;;5069315;28;19925;-50
2022/01/15 10:54:52;;;;;;;;;;;1.60;99.90;;;;;;5070645;28;19925;-49
2022/01/15 10:57:20;;;;;;;;;;;1.70;99.90;;;;;;5071839;28;19933;-49
2022/01/15 10:59:55;;;;;;;;;;;1.60;99.90;;;;;;5071427;28;19924;-49
2022/01/15 11:02:23;;;;;;;;;;;1.50;99.90;;;;;;5072837;28;20364;-49
2022/01/15 11:04:50;;;;;;;;;;;1.80;99.90;;;;;;5072745;28;19928;-49
2022/01/15 11:07:18;;;;;;;;;;;2.10;99.90;;;;;;5072728;28;19925;-50
2022/01/15 11:09:45;;;;;;;;;;;2.00;99.90;;;;;;5072127;28;20386;-50
2022/01/15 11:12:12;;;;;;;;;;;2.10;99.90;;;;;;5072597;28;19924;-49
2022/01/15 11:14:39;;;;;;;;;;;2.00;99.90;;;;;;5072355;28;20456;-49
2022/01/15 11:17:07;;;;;;;;;;;2.10;99.90;;;;;;5072194;28;19978;-52
2022/01/15 11:19:35;;;;;;;;;;;2.20;99.90;;;;;;5067803;28;19924;-51
2022/01/15 11:22:03;;;;;;;;;;;2.20;99.90;;;;;;5072360;28;19924;-51
2022/01/15 11:24:31;;;;;;;;;;;2.00;99.90;;;;;;5072192;28;20452;-51
2022/01/15 11:27:00;;;;;;;;;;;1.90;99.90;;;;;;5071898;28;20386;-51
2022/01/15 11:29:27;;;;;;;;;;;2.20;99.90;;;;;;5077336;28;20011;-50
2022/01/15 11:31:56;;;;;;;;;;;2.20;99.90;;;;;;5071251;28;19932;-50
2022/01/15 11:34:23;;;;;;;;;;;2.30;99.90;;;;;;5071832;28;19930;-50
2022/01/15 11:36:51;;;;;;;;;;;2.40;99.90;;;;;;5072054;28;19925;-50
2022/01/15 11:39:20;;;;;;;;;;;2.30;99.90;;;;;;5071555;28;19940;-50
2022/01/15 11:41:48;;;;;;;;;;;2.20;99.90;;;;;;5070778;28;19997;-51
2022/01/15 11:44:16;;;;;;;;;;;2.40;99.90;;;;;;5071845;28;19929;-51
2022/01/15 11:46:48;;;;;;;;;;;2.60;99.90;;;;;;5071667;28;19933;-51
2022/01/15 11:49:31;;;;;;;;;;;2.70;99.90;;;;;;5070826;28;19934;-49
2022/01/15 11:52:22;;;;;;;;;;;2.90;99.90;;;;;;5071357;28;19925;-49
2022/01/15 11:55:05;;;;;;;;;;;2.80;99.90;;;;;;5067218;28;20309;-51
2022/01/15 11:57:33;;;;;;;;;;;2.70;99.90;;;;;;5067268;28;19932;-49
2022/01/15 12:00:00;;;;;;;;;;;2.80;99.90;;;;;;5058026;28;19985;-50
2022/01/15 12:02:28;;;;;;;;;;;2.70;99.90;;;;;;5071151;28;19940;-52
2022/01/15 12:04:55;;;;;;;;;;;2.60;99.90;;;;;;5071100;28;20337;-48
2022/01/15 12:07:24;;;;;;;;;;;2.70;99.90;;;;;;5071577;28;19924;-50
2022/01/15 12:09:52;;;;;;;;;;;2.50;99.90;;;;;;5071176;28;19928;-50
2022/01/15 12:12:41;;;;;;;;;;;2.50;99.90;;;;;;5071442;28;20445;-49
2022/01/15 12:15:09;;;;;;;;;;;2.60;99.90;;;;;;5071928;28;20011;-49
2022/01/15 12:17:37;;;;;;;;;;;2.50;99.90;;;;;;5071357;28;19969;-50
2022/01/15 12:20:06;;;;;;;;;;;2.50;99.90;;;;;;5070522;28;19929;-51
2022/01/15 12:22:39;;;;;;;;;;;2.60;99.90;;;;;;5066205;28;20333;-50
2022/01/15 12:25:07;;;;;;;;;;;2.70;99.90;;;;;;5070564;28;19925;-51
2022/01/15 12:27:34;;;;;;;;;;;2.60;99.90;;;;;;5070626;28;19970;-51
2022/01/15 12:30:06;;;;;;;;;;;2.50;99.90;;;;;;5070793;28;20390;-52
2022/01/15 12:32:35;;;;;;;;;;;2.50;99.90;;;;;;5069061;28;20331;-50
2022/01/15 12:35:02;;;;;;;;;;;2.80;99.90;;;;;;5069671;28;19928;-52
2022/01/15 12:37:29;;;;;;;;;;;2.80;99.90;;;;;;5070760;28;19925;-51
2022/01/15 12:39:57;;;;;;;;;;;2.70;99.90;;;;;;5070882;28;19978;-49
2022/01/15 12:42:29;;;;;;;;;;;2.90;99.90;;;;;;5069750;28;19932;-50
2022/01/15 12:44:55;;;;;;;;;;;3.00;99.90;;;;;;5070857;28;19977;-49
2022/01/15 12:47:22;;;;;;;;;;;2.90;99.90;;;;;;5064849;28;20363;-51
2022/01/15 12:49:50;;;;;;;;;;;2.70;99.90;;;;;;5071384;28;19974;-50
2022/01/15 12:52:21;;;;;;;;;;;2.70;99.90;;;;;;5071739;28;19924;-50
2022/01/15 12:54:48;;;;;;;;;;;2.70;99.90;;;;;;5071447;28;19924;-50
2022/01/15 12:57:36;;;;;;;;;;;2.70;99.90;;;;;;5071615;28;19925;-50
2022/01/15 13:00:03;;;;;;;;;;;2.60;99.90;;;;;;5070637;28;19978;-50
2022/01/15 13:02:30;;;;;;;;;;;2.80;99.90;;;;;;5071220;28;20291;-52
2022/01/15 13:04:57;;;;;;;;;;;2.70;99.90;;;;;;5087358;22;19925;-53
2022/01/15 13:07:24;;;;;;;;;;;2.70;99.90;;;;;;5040363;28;20389;-53
2022/01/15 13:09:51;;;;;;;;;;;2.60;99.90;;;;;;5050771;28;19967;-53
2022/01/15 13:12:19;;;;;;;;;;;2.50;99.90;;;;;;5051109;28;19925;-52
2022/01/15 13:14:46;;;;;;;;;;;2.20;99.90;;;;;;5051683;28;19924;-52
2022/01/15 13:17:22;;;;;;;;;;;2.10;99.90;;;;;;5061542;28;19924;-53
2022/01/15 13:19:49;;;;;;;;;;;2.20;99.90;;;;;;5063064;28;19925;-53
2022/01/15 13:22:19;;;;;;;;;;;2.20;99.90;;;;;;5063089;28;19924;-52
2022/01/15 13:24:46;;;;;;;;;;;2.20;99.90;;;;;;5056730;28;20437;-55
2022/01/15 13:27:12;;;;;;;;;;;2.20;99.90;;;;;;5054686;28;19979;-52
2022/01/15 13:29:42;;;;;;;;;;;2.20;99.90;;;;;;5054669;28;19975;-53
2022/01/15 13:32:09;;;;;;;;;;;2.20;99.90;;;;;;5054963;28;19979;-52
2022/01/15 13:34:36;;;;;;;;;;;2.00;99.90;;;;;;5054275;28;20363;-53
2022/01/15 13:37:12;;;;;;;;;;;2.00;99.90;;;;;;5054340;28;19932;-53
2022/01/15 13:39:40;;;;;;;;;;;2.00;99.90;;;;;;5054340;28;19942;-52
2022/01/15 13:42:15;;;;;;;;;;;2.10;99.90;;;;;;5054788;28;19971;-52
2022/01/15 13:44:43;;;;;;;;;;;2.00;99.90;;;;;;5054646;28;19933;-52
2022/01/15 13:47:12;;;;;;;;;;;1.80;99.90;;;;;;5054389;28;20294;-52
2022/01/15 13:55:11;;;;;;;;;;;1.30;99.90;;;;;;5054116;28;19928;-53
2022/01/15 13:57:39;;;;;;;;;;;1.30;99.90;;;;;;5054432;28;19928;-53
2022/01/15 14:00:11;;;;;;;;;;;1.30;99.90;;;;;;5054189;28;20024;-53
2022/01/15 14:02:38;;;;;;;;;;;1.40;99.90;;;;;;5054266;28;19978;-53
2022/01/15 14:05:11;;;;;;;;;;;1.50;99.90;;;;;;5054397;28;19933;-51
2022/01/15 14:07:38;;;;;;;;;;;1.50;99.90;;;;;;5053569;28;19925;-52
2022/01/15 14:10:08;;;;;;;;;;;1.60;99.90;;;;;;5053199;28;19928;-52
2022/01/15 14:12:35;;;;;;;;;;;1.60;99.90;;;;;;5053453;28;19928;-52
2022/01/15 14:15:04;;;;;;;;;;;1.50;99.90;;;;;;5053104;28;19960;-52
2022/01/15 14:17:33;;;;;;;;;;;1.50;99.90;;;;;;5053252;28;19935;-53
2022/01/15 14:20:16;;;;;;;;;;;1.50;99.90;;;;;;5053505;28;19925;-53
2022/01/15 14:22:44;;;;;;;;;;;1.50;99.90;;;;;;5053701;28;19928;-52
2022/01/15 14:25:12;;;;;;;;;;;1.50;99.90;;;;;;5052535;28;19932;-53
2022/01/15 14:27:39;;;;;;;;;;;1.40;99.90;;;;;;5054308;28;19925;-53
2022/01/15 14:30:07;;;;;;;;;;;1.40;99.90;;;;;;5053760;28;19983;-53
2022/01/15 14:32:35;;;;;;;;;;;1.40;99.90;;;;;;5053672;28;19970;-52
2022/01/15 14:35:02;;;;;;;;;;;1.30;99.90;;;;;;5053358;28;20012;-52
2022/01/15 14:37:29;;;;;;;;;;;1.50;99.90;;;;;;5054074;28;19925;-52
2022/01/15 14:39:56;;;;;;;;;;;1.40;99.90;;;;;;5053731;28;19975;-52
2022/01/15 14:42:23;;;;;;;;;;;1.50;99.90;;;;;;5052803;28;19962;-52
2022/01/15 14:44:50;;;;;;;;;;;1.40;99.90;;;;;;5053053;28;19978;-53
2022/01/15 14:47:16;;;;;;;;;;;1.40;99.90;;;;;;5053006;28;19995;-53
2022/01/15 14:49:45;;;;;;;;;;;1.30;99.90;;;;;;5052617;28;19925;-52
2022/01/15 14:52:12;;;;;;;;;;;1.20;99.90;;;;;;5053958;28;19929;-53
2022/01/15 14:54:40;;;;;;;;;;;1.10;99.90;;;;;;5053413;28;19929;-53